sensor_id;sensor_type;location;lat;lon;timestamp;temperature;humidity
21565;DHT22;10943;48.738;9.320;2022-12-18T00:01:31;-2.80;99.90
21565;DHT22;10943;48.738;9.320;2022-12-18T00:04:05;-2.80;99.90
21565;DHT22;10943;48.738;9.320;2022-12-18T00:06:40;-2.70;99.90
21565;DHT22;10943;48.738;9.320;2022-12-18T00:09:09;-2.70;99.90
21565;DHT22;10943;48.738;9.320;2022-12-18T00:11:36;-2.60;99.90
21565;DHT22;10943;48.738;9.320;2022-12-18T00:14:04;-2.50;99.90
21565;DHT22;10943;48.738;9.320;2022-12-18T00:16:32;-2.40;99.90
21565;DHT22;10943;48.738;9.320;2022-12-18T00:19:03;-2.40;99.90
21565;DHT22;10943;48.738;9.320;2022-12-18T00:21:32;-2.50;99.90
21565;DHT22;10943;48.738;9.320;2022-12-18T00:24:01;-2.50;99.90
21565;DHT22;10943;48.738;9.320;2022-12-18T00:26:31;-2.70;99.90
21565;DHT22;10943;48.738;9.320;2022-12-18T00:29:07;-2.60;99.90
21565;DHT22;10943;48.738;9.320;2022-12-18T00:31:43;-2.40;99.90
21565;DHT22;10943;48.738;9.320;2022-12-18T00:34:12;-2.40;99.90
21565;DHT22;10943;48.738;9.320;2022-12-18T00:36:40;-2.50;99.90
21565;DHT22;10943;48.738;9.320;2022-12-18T00:39:10;-2.50;99.90
21565;DHT22;10943;48.738;9.320;2022-12-18T00:41:39;-2.60;99.90
21565;DHT22;10943;48.738;9.320;2022-12-18T00:44:25;-2.40;99.90
21565;DHT22;10943;48.738;9.320;2022-12-18T00:46:53;-2.50;99.90
21565;DHT22;10943;48.738;9.320;2022-12-18T00:49:21;-2.50;99.90
21565;DHT22;10943;48.738;9.320;2022-12-18T00:51:49;-2.60;99.90
21565;DHT22;10943;48.738;9.320;2022-12-18T00:54:17;-2.50;99.90
21565;DHT22;10943;48.738;9.320;2022-12-18T00:56:45;-2.70;99.90
21565;DHT22;10943;48.738;9.320;2022-12-18T00:59:22;-2.50;99.90
21565;DHT22;10943;48.738;9.320;2022-12-18T01:01:50;-2.60;99.90
21565;DHT22;10943;48.738;9.320;2022-12-18T01:04:19;-2.50;99.90
21565;DHT22;10943;48.738;9.320;2022-12-18T01:06:48;-2.40;99.90
21565;DHT22;10943;48.738;9.320;2022-12-18T01:09:15;-2.50;99.90
21565;DHT22;10943;48.738;9.320;2022-12-18T01:11:43;-2.60;99.90
21565;DHT22;10943;48.738;9.320;2022-12-18T01:14:10;-2.50;99.90
21565;DHT22;10943;48.738;9.320;2022-12-18T01:16:38;-2.60;99.90
21565;DHT22;10943;48.738;9.320;2022-12-18T01:19:06;-2.60;99.90
21565;DHT22;10943;48.738;9.320;2022-12-18T01:21:34;-2.60;99.90
21565;DHT22;10943;48.738;9.320;2022-12-18T01:24:04;-2.50;99.90
21565;DHT22;10943;48.738;9.320;2022-12-18T01:26:37;-2.60;99.90
21565;DHT22;10943;48.738;9.320;2022-12-18T01:29:04;-2.70;99.90
21565;DHT22;10943;48.738;9.320;2022-12-18T01:31:37;-2.70;99.90
21565;DHT22;10943;48.738;9.320;2022-12-18T01:34:05;-2.90;99.90
21565;DHT22;10943;48.738;9.320;2022-12-18T01:36:35;-2.70;99.90
21565;DHT22;10943;48.738;9.320;2022-12-18T01:39:15;-2.60;99.90
21565;DHT22;10943;48.738;9.320;2022-12-18T01:41:43;-2.60;99.90
21565;DHT22;10943;48.738;9.320;2022-12-18T01:47:44;-2.50;99.90
21565;DHT22;10943;48.738;9.320;2022-12-18T01:53:17;-2.60;99.90
21565;DHT22;10943;48.738;9.320;2022-12-18T01:55:53;-2.50;99.90
21565;DHT22;10943;48.738;9.320;2022-12-18T01:58:30;-2.60;99.90
21565;DHT22;10943;48.738;9.320;2022-12-18T02:01:09;-2.70;99.90
21565;DHT22;10943;48.738;9.320;2022-12-18T02:03:40;-2.90;99.90
21565;DHT22;10943;48.738;9.320;2022-12-18T02:09:02;-2.70;99.90
21565;DHT22;10943;48.738;9.320;2022-12-18T02:12:00;-2.80;99.90
21565;DHT22;10943;48.738;9.320;2022-12-18T02:17:39;-2.90;99.90
21565;DHT22;10943;48.738;9.320;2022-12-18T02:20:44;-3.30;99.90
21565;DHT22;10943;48.738;9.320;2022-12-18T02:23:44;-3.30;99.90
21565;DHT22;10943;48.738;9.320;2022-12-18T02:26:27;-3.20;99.90
21565;DHT22;10943;48.738;9.320;2022-12-18T02:29:03;-3.00;99.90
21565;DHT22;10943;48.738;9.320;2022-12-18T02:31:42;-2.90;99.90
21565;DHT22;10943;48.738;9.320;2022-12-18T02:34:16;-2.70;99.90
21565;DHT22;10943;48.738;9.320;2022-12-18T02:36:47;-2.90;99.90
21565;DHT22;10943;48.738;9.320;2022-12-18T02:39:17;-2.90;99.90
21565;DHT22;10943;48.738;9.320;2022-12-18T02:41:57;-2.90;99.90
21565;DHT22;10943;48.738;9.320;2022-12-18T02:44:26;-3.20;99.90
21565;DHT22;10943;48.738;9.320;2022-12-18T02:46:54;-3.60;99.90
21565;DHT22;10943;48.738;9.320;2022-12-18T02:55:44;-3.50;99.90
21565;DHT22;10943;48.738;9.320;2022-12-18T03:02:21;-3.30;99.90
21565;DHT22;10943;48.738;9.320;2022-12-18T03:05:24;-3.30;99.90
21565;DHT22;10943;48.738;9.320;2022-12-18T03:08:14;-3.30;99.90
21565;DHT22;10943;48.738;9.320;2022-12-18T03:10:57;-3.40;99.90
21565;DHT22;10943;48.738;9.320;2022-12-18T03:16:27;-3.40;99.90
21565;DHT22;10943;48.738;9.320;2022-12-18T03:19:01;-3.40;99.90
21565;DHT22;10943;48.738;9.320;2022-12-18T03:21:46;-3.50;99.90
21565;DHT22;10943;48.738;9.320;2022-12-18T03:24:20;-3.70;99.90
21565;DHT22;10943;48.738;9.320;2022-12-18T03:26:52;-3.70;99.90
21565;DHT22;10943;48.738;9.320;2022-12-18T03:29:38;-3.70;99.90
21565;DHT22;10943;48.738;9.320;2022-12-18T03:32:25;-3.70;99.90
21565;DHT22;10943;48.738;9.320;2022-12-18T03:35:03;-3.90;99.90
21565;DHT22;10943;48.738;9.320;2022-12-18T03:37:36;-3.90;99.90
21565;DHT22;10943;48.738;9.320;2022-12-18T03:40:05;-4.10;99.90
21565;DHT22;10943;48.738;9.320;2022-12-18T03:42:48;-4.20;99.90
21565;DHT22;10943;48.738;9.320;2022-12-18T03:45:27;-4.00;99.90
21565;DHT22;10943;48.738;9.320;2022-12-18T03:54:45;-4.00;99.90
21565;DHT22;10943;48.738;9.320;2022-12-18T03:57:25;-4.00;99.90
21565;DHT22;10943;48.738;9.320;2022-12-18T04:00:10;-4.10;99.90
21565;DHT22;10943;48.738;9.320;2022-12-18T04:02:54;-4.20;99.90
21565;DHT22;10943;48.738;9.320;2022-12-18T04:05:33;-4.30;99.90
21565;DHT22;10943;48.738;9.320;2022-12-18T04:08:03;-4.50;99.90
21565;DHT22;10943;48.738;9.320;2022-12-18T04:10:35;-4.40;99.90
21565;DHT22;10943;48.738;9.320;2022-12-18T04:13:03;-4.40;99.90
21565;DHT22;10943;48.738;9.320;2022-12-18T04:15:34;-4.40;99.90
21565;DHT22;10943;48.738;9.320;2022-12-18T04:18:07;-4.50;99.90
21565;DHT22;10943;48.738;9.320;2022-12-18T04:20:39;-4.50;99.90
21565;DHT22;10943;48.738;9.320;2022-12-18T04:23:07;-4.50;99.90
21565;DHT22;10943;48.738;9.320;2022-12-18T04:25:38;-4.50;99.90
21565;DHT22;10943;48.738;9.320;2022-12-18T04:28:15;-4.60;99.90
21565;DHT22;10943;48.738;9.320;2022-12-18T04:30:43;-4.70;99.90
21565;DHT22;10943;48.738;9.320;2022-12-18T04:33:16;-4.80;99.90
21565;DHT22;10943;48.738;9.320;2022-12-18T04:35:45;-4.90;99.90
21565;DHT22;10943;48.738;9.320;2022-12-18T04:38:13;-4.90;99.90
21565;DHT22;10943;48.738;9.320;2022-12-18T04:40:41;-4.80;99.90
21565;DHT22;10943;48.738;9.320;2022-12-18T04:43:17;-4.80;99.90
21565;DHT22;10943;48.738;9.320;2022-12-18T04:45:44;-4.90;99.90
21565;DHT22;10943;48.738;9.320;2022-12-18T04:48:11;-4.80;99.90
21565;DHT22;10943;48.738;9.320;2022-12-18T04:50:39;-5.00;99.90
21565;DHT22;10943;48.738;9.320;2022-12-18T04:53:07;-5.10;99.90
21565;DHT22;10943;48.738;9.320;2022-12-18T04:55:38;-5.30;99.90
21565;DHT22;10943;48.738;9.320;2022-12-18T04:58:06;-5.10;99.90
21565;DHT22;10943;48.738;9.320;2022-12-18T05:00:33;-5.00;99.90
21565;DHT22;10943;48.738;9.320;2022-12-18T05:03:01;-5.20;99.90
21565;DHT22;10943;48.738;9.320;2022-12-18T05:05:30;-5.20;99.90
21565;DHT22;10943;48.738;9.320;2022-12-18T05:07:57;-5.30;99.90
21565;DHT22;10943;48.738;9.320;2022-12-18T05:10:25;-5.40;99.90
21565;DHT22;10943;48.738;9.320;2022-12-18T05:12:52;-5.50;99.90
21565;DHT22;10943;48.738;9.320;2022-12-18T05:15:31;-5.50;99.90
21565;DHT22;10943;48.738;9.320;2022-12-18T05:18:00;-5.50;99.90
21565;DHT22;10943;48.738;9.320;2022-12-18T05:20:29;-5.40;99.90
21565;DHT22;10943;48.738;9.320;2022-12-18T05:22:57;-5.40;99.90
21565;DHT22;10943;48.738;9.320;2022-12-18T05:25:25;-5.40;99.90
21565;DHT22;10943;48.738;9.320;2022-12-18T05:27:52;-5.40;99.90
21565;DHT22;10943;48.738;9.320;2022-12-18T05:30:21;-5.30;99.90
21565;DHT22;10943;48.738;9.320;2022-12-18T05:32:49;-5.30;99.90
21565;DHT22;10943;48.738;9.320;2022-12-18T05:35:16;-5.50;99.90
21565;DHT22;10943;48.738;9.320;2022-12-18T05:37:45;-5.60;99.90
21565;DHT22;10943;48.738;9.320;2022-12-18T05:40:13;-5.40;99.90
21565;DHT22;10943;48.738;9.320;2022-12-18T05:42:40;-5.40;99.90
21565;DHT22;10943;48.738;9.320;2022-12-18T05:45:08;-5.50;99.90
21565;DHT22;10943;48.738;9.320;2022-12-18T05:47:36;-5.60;99.90
21565;DHT22;10943;48.738;9.320;2022-12-18T05:50:04;-5.60;99.90
21565;DHT22;10943;48.738;9.320;2022-12-18T05:52:33;-5.60;99.90
21565;DHT22;10943;48.738;9.320;2022-12-18T05:55:01;-5.50;99.90
21565;DHT22;10943;48.738;9.320;2022-12-18T05:57:29;-5.50;99.90
21565;DHT22;10943;48.738;9.320;2022-12-18T05:59:57;-5.50;99.90
21565;DHT22;10943;48.738;9.320;2022-12-18T06:02:24;-5.60;99.90
21565;DHT22;10943;48.738;9.320;2022-12-18T06:04:52;-5.50;99.90
21565;DHT22;10943;48.738;9.320;2022-12-18T06:07:20;-5.50;99.90
21565;DHT22;10943;48.738;9.320;2022-12-18T06:09:47;-5.60;99.90
21565;DHT22;10943;48.738;9.320;2022-12-18T06:12:17;-5.40;99.90
21565;DHT22;10943;48.738;9.320;2022-12-18T06:14:45;-5.50;99.90
21565;DHT22;10943;48.738;9.320;2022-12-18T06:17:12;-5.40;99.90
21565;DHT22;10943;48.738;9.320;2022-12-18T06:19:39;-5.50;99.90
21565;DHT22;10943;48.738;9.320;2022-12-18T06:22:07;-5.60;99.90
21565;DHT22;10943;48.738;9.320;2022-12-18T06:24:34;-5.70;99.90
21565;DHT22;10943;48.738;9.320;2022-12-18T06:27:01;-5.70;99.90
21565;DHT22;10943;48.738;9.320;2022-12-18T06:29:29;-5.60;99.90
21565;DHT22;10943;48.738;9.320;2022-12-18T06:31:56;-5.60;99.90
21565;DHT22;10943;48.738;9.320;2022-12-18T06:34:24;-5.60;99.90
21565;DHT22;10943;48.738;9.320;2022-12-18T06:36:51;-5.50;99.90
21565;DHT22;10943;48.738;9.320;2022-12-18T06:39:19;-5.70;99.90
21565;DHT22;10943;48.738;9.320;2022-12-18T06:41:47;-5.90;99.90
21565;DHT22;10943;48.738;9.320;2022-12-18T06:44:14;-6.20;99.90
21565;DHT22;10943;48.738;9.320;2022-12-18T06:46:42;-6.20;99.90
21565;DHT22;10943;48.738;9.320;2022-12-18T06:49:09;-5.90;99.90
21565;DHT22;10943;48.738;9.320;2022-12-18T06:51:37;-5.90;99.90
21565;DHT22;10943;48.738;9.320;2022-12-18T06:54:05;-5.90;99.90
21565;DHT22;10943;48.738;9.320;2022-12-18T06:56:33;-6.00;99.90
21565;DHT22;10943;48.738;9.320;2022-12-18T06:59:01;-6.10;99.90
21565;DHT22;10943;48.738;9.320;2022-12-18T07:01:29;-6.00;99.90
21565;DHT22;10943;48.738;9.320;2022-12-18T07:04:02;-6.00;99.90
21565;DHT22;10943;48.738;9.320;2022-12-18T07:06:36;-6.20;99.90
21565;DHT22;10943;48.738;9.320;2022-12-18T07:09:03;-6.20;99.90
21565;DHT22;10943;48.738;9.320;2022-12-18T07:11:32;-6.20;99.90
21565;DHT22;10943;48.738;9.320;2022-12-18T07:14:00;-6.10;99.90
21565;DHT22;10943;48.738;9.320;2022-12-18T07:16:28;-6.30;99.90
21565;DHT22;10943;48.738;9.320;2022-12-18T07:18:56;-6.30;99.90
21565;DHT22;10943;48.738;9.320;2022-12-18T07:21:24;-6.30;99.90
21565;DHT22;10943;48.738;9.320;2022-12-18T07:23:52;-6.10;99.90
21565;DHT22;10943;48.738;9.320;2022-12-18T07:26:21;-5.90;99.90
21565;DHT22;10943;48.738;9.320;2022-12-18T07:28:49;-6.10;99.90
21565;DHT22;10943;48.738;9.320;2022-12-18T07:31:19;-6.00;99.90
21565;DHT22;10943;48.738;9.320;2022-12-18T07:33:52;-5.80;99.90
21565;DHT22;10943;48.738;9.320;2022-12-18T07:36:20;-5.60;99.90
21565;DHT22;10943;48.738;9.320;2022-12-18T07:38:48;-5.70;99.90
21565;DHT22;10943;48.738;9.320;2022-12-18T07:41:18;-5.70;99.90
21565;DHT22;10943;48.738;9.320;2022-12-18T07:43:46;-5.70;99.90
21565;DHT22;10943;48.738;9.320;2022-12-18T07:46:14;-5.80;99.90
21565;DHT22;10943;48.738;9.320;2022-12-18T07:48:43;-5.70;99.90
21565;DHT22;10943;48.738;9.320;2022-12-18T07:51:16;-5.60;99.90
21565;DHT22;10943;48.738;9.320;2022-12-18T07:53:45;-5.50;99.90
21565;DHT22;10943;48.738;9.320;2022-12-18T07:56:19;-5.40;99.90
21565;DHT22;10943;48.738;9.320;2022-12-18T07:58:58;-5.60;99.90
21565;DHT22;10943;48.738;9.320;2022-12-18T08:01:26;-5.80;99.90
21565;DHT22;10943;48.738;9.320;2022-12-18T08:03:54;-5.80;99.90
21565;DHT22;10943;48.738;9.320;2022-12-18T08:06:23;-5.70;99.90
21565;DHT22;10943;48.738;9.320;2022-12-18T08:08:55;-5.70;99.90
21565;DHT22;10943;48.738;9.320;2022-12-18T08:11:25;-5.70;99.90
21565;DHT22;10943;48.738;9.320;2022-12-18T08:13:55;-5.70;99.90
21565;DHT22;10943;48.738;9.320;2022-12-18T08:16:26;-5.90;99.90
21565;DHT22;10943;48.738;9.320;2022-12-18T08:18:54;-6.10;99.90
21565;DHT22;10943;48.738;9.320;2022-12-18T08:21:27;-5.70;99.90
21565;DHT22;10943;48.738;9.320;2022-12-18T08:23:59;-5.70;99.90
21565;DHT22;10943;48.738;9.320;2022-12-18T08:26:30;-5.50;99.90
21565;DHT22;10943;48.738;9.320;2022-12-18T08:28:59;-5.40;99.90
21565;DHT22;10943;48.738;9.320;2022-12-18T08:31:28;-5.30;99.90
21565;DHT22;10943;48.738;9.320;2022-12-18T08:34:23;-5.20;99.90
21565;DHT22;10943;48.738;9.320;2022-12-18T08:36:50;-5.30;99.90
21565;DHT22;10943;48.738;9.320;2022-12-18T08:39:18;-5.10;99.90
21565;DHT22;10943;48.738;9.320;2022-12-18T08:41:45;-4.80;99.90
21565;DHT22;10943;48.738;9.320;2022-12-18T08:44:36;-5.00;99.90
21565;DHT22;10943;48.738;9.320;2022-12-18T08:47:07;-4.90;99.90
21565;DHT22;10943;48.738;9.320;2022-12-18T08:49:35;-4.70;99.90
21565;DHT22;10943;48.738;9.320;2022-12-18T08:52:03;-4.80;99.90
21565;DHT22;10943;48.738;9.320;2022-12-18T08:54:31;-4.60;99.90
21565;DHT22;10943;48.738;9.320;2022-12-18T08:57:01;-4.70;99.90
21565;DHT22;10943;48.738;9.320;2022-12-18T08:59:29;-4.50;99.90
21565;DHT22;10943;48.738;9.320;2022-12-18T09:01:57;-4.20;99.90
21565;DHT22;10943;48.738;9.320;2022-12-18T09:04:24;-4.30;99.90
21565;DHT22;10943;48.738;9.320;2022-12-18T09:06:55;-4.30;99.90
21565;DHT22;10943;48.738;9.320;2022-12-18T09:09:22;-4.30;99.90
21565;DHT22;10943;48.738;9.320;2022-12-18T09:11:50;-4.30;99.90
21565;DHT22;10943;48.738;9.320;2022-12-18T09:14:18;-4.30;99.90
21565;DHT22;10943;48.738;9.320;2022-12-18T09:16:49;-4.20;99.90
21565;DHT22;10943;48.738;9.320;2022-12-18T09:19:17;-4.30;99.90
21565;DHT22;10943;48.738;9.320;2022-12-18T09:21:44;-3.90;99.90
21565;DHT22;10943;48.738;9.320;2022-12-18T09:24:15;-3.50;99.90
21565;DHT22;10943;48.738;9.320;2022-12-18T09:26:53;-3.20;99.90
21565;DHT22;10943;48.738;9.320;2022-12-18T09:29:27;-3.10;99.90
21565;DHT22;10943;48.738;9.320;2022-12-18T09:32:14;-2.40;99.90
21565;DHT22;10943;48.738;9.320;2022-12-18T09:34:48;-0.50;99.90
21565;DHT22;10943;48.738;9.320;2022-12-18T09:37:16;1.20;99.90
21565;DHT22;10943;48.738;9.320;2022-12-18T09:39:43;3.00;99.90
21565;DHT22;10943;48.738;9.320;2022-12-18T09:42:21;4.70;99.90
21565;DHT22;10943;48.738;9.320;2022-12-18T09:44:52;5.80;99.90
21565;DHT22;10943;48.738;9.320;2022-12-18T09:47:37;5.70;99.90
21565;DHT22;10943;48.738;9.320;2022-12-18T09:50:38;6.60;99.90
21565;DHT22;10943;48.738;9.320;2022-12-18T09:53:15;7.50;99.90
21565;DHT22;10943;48.738;9.320;2022-12-18T09:55:51;8.10;99.90
21565;DHT22;10943;48.738;9.320;2022-12-18T09:58:36;8.70;99.90
21565;DHT22;10943;48.738;9.320;2022-12-18T10:01:18;9.10;97.40
21565;DHT22;10943;48.738;9.320;2022-12-18T10:03:51;9.30;99.10
21565;DHT22;10943;48.738;9.320;2022-12-18T10:12:20;10.20;96.00
21565;DHT22;10943;48.738;9.320;2022-12-18T10:20:56;10.70;92.90
21565;DHT22;10943;48.738;9.320;2022-12-18T10:23:57;10.70;94.00
21565;DHT22;10943;48.738;9.320;2022-12-18T10:26:45;11.00;92.40
21565;DHT22;10943;48.738;9.320;2022-12-18T10:29:16;11.60;91.70
21565;DHT22;10943;48.738;9.320;2022-12-18T10:31:44;11.40;90.20
21565;DHT22;10943;48.738;9.320;2022-12-18T10:34:12;11.30;90.10
21565;DHT22;10943;48.738;9.320;2022-12-18T10:36:40;10.20;90.40
21565;DHT22;10943;48.738;9.320;2022-12-18T10:39:22;9.50;91.10
21565;DHT22;10943;48.738;9.320;2022-12-18T10:42:10;8.70;92.60
21565;DHT22;10943;48.738;9.320;2022-12-18T10:44:44;8.30;93.90
21565;DHT22;10943;48.738;9.320;2022-12-18T10:47:18;8.70;93.20
21565;DHT22;10943;48.738;9.320;2022-12-18T10:49:49;8.90;93.20
21565;DHT22;10943;48.738;9.320;2022-12-18T10:52:25;8.90;93.10
21565;DHT22;10943;48.738;9.320;2022-12-18T10:55:02;9.00;93.00
21565;DHT22;10943;48.738;9.320;2022-12-18T10:57:33;8.30;93.60
21565;DHT22;10943;48.738;9.320;2022-12-18T11:00:35;8.00;94.40
21565;DHT22;10943;48.738;9.320;2022-12-18T11:03:30;7.70;95.60
21565;DHT22;10943;48.738;9.320;2022-12-18T11:06:14;8.20;95.00
21565;DHT22;10943;48.738;9.320;2022-12-18T11:09:03;8.30;94.90
21565;DHT22;10943;48.738;9.320;2022-12-18T11:11:51;8.20;94.80
21565;DHT22;10943;48.738;9.320;2022-12-18T11:14:43;7.90;95.50
21565;DHT22;10943;48.738;9.320;2022-12-18T11:17:31;7.70;95.70
21565;DHT22;10943;48.738;9.320;2022-12-18T11:20:05;7.90;95.90
21565;DHT22;10943;48.738;9.320;2022-12-18T11:23:05;8.20;95.60
21565;DHT22;10943;48.738;9.320;2022-12-18T11:25:40;8.90;96.60
21565;DHT22;10943;48.738;9.320;2022-12-18T11:28:37;9.60;94.60
21565;DHT22;10943;48.738;9.320;2022-12-18T11:36:53;9.30;95.20
21565;DHT22;10943;48.738;9.320;2022-12-18T11:39:40;9.40;94.70
21565;DHT22;10943;48.738;9.320;2022-12-18T11:42:20;8.80;95.20
21565;DHT22;10943;48.738;9.320;2022-12-18T11:45:24;8.60;96.10
21565;DHT22;10943;48.738;9.320;2022-12-18T11:48:44;9.30;96.30
21565;DHT22;10943;48.738;9.320;2022-12-18T11:51:26;9.40;95.90
21565;DHT22;10943;48.738;9.320;2022-12-18T11:54:12;9.20;95.10
21565;DHT22;10943;48.738;9.320;2022-12-18T12:00:16;9.30;95.80
21565;DHT22;10943;48.738;9.320;2022-12-18T12:16:21;9.90;96.20
21565;DHT22;10943;48.738;9.320;2022-12-18T12:36:20;7.60;99.90
21565;DHT22;10943;48.738;9.320;2022-12-18T12:39:11;7.80;99.80
21565;DHT22;10943;48.738;9.320;2022-12-18T12:41:46;7.50;99.90
21565;DHT22;10943;48.738;9.320;2022-12-18T12:44:43;7.60;99.90
21565;DHT22;10943;48.738;9.320;2022-12-18T12:47:32;7.70;99.90
21565;DHT22;10943;48.738;9.320;2022-12-18T12:50:13;7.80;99.90
21565;DHT22;10943;48.738;9.320;2022-12-18T12:52:54;7.90;99.90
21565;DHT22;10943;48.738;9.320;2022-12-18T12:55:50;7.80;99.90
21565;DHT22;10943;48.738;9.320;2022-12-18T12:58:33;7.70;99.90
21565;DHT22;10943;48.738;9.320;2022-12-18T13:04:41;7.60;99.90
21565;DHT22;10943;48.738;9.320;2022-12-18T13:10:39;7.50;99.90
21565;DHT22;10943;48.738;9.320;2022-12-18T13:13:14;7.10;99.90
21565;DHT22;10943;48.738;9.320;2022-12-18T13:16:04;7.00;99.90
21565;DHT22;10943;48.738;9.320;2022-12-18T13:18:35;7.00;99.90
21565;DHT22;10943;48.738;9.320;2022-12-18T13:21:14;7.00;99.90
21565;DHT22;10943;48.738;9.320;2022-12-18T13:23:48;7.10;99.90
21565;DHT22;10943;48.738;9.320;2022-12-18T13:34:16;6.50;99.90
21565;DHT22;10943;48.738;9.320;2022-12-18T13:36:57;6.50;99.90
21565;DHT22;10943;48.738;9.320;2022-12-18T13:39:58;6.40;99.90
21565;DHT22;10943;48.738;9.320;2022-12-18T13:42:39;6.30;99.90
21565;DHT22;10943;48.738;9.320;2022-12-18T13:45:41;6.40;99.90
21565;DHT22;10943;48.738;9.320;2022-12-18T13:48:19;6.20;99.90
21565;DHT22;10943;48.738;9.320;2022-12-18T13:51:03;6.20;99.90
21565;DHT22;10943;48.738;9.320;2022-12-18T13:53:46;6.10;99.90
21565;DHT22;10943;48.738;9.320;2022-12-18T13:56:29;5.90;99.90
21565;DHT22;10943;48.738;9.320;2022-12-18T13:59:11;5.80;99.90
21565;DHT22;10943;48.738;9.320;2022-12-18T14:01:56;5.80;99.90
21565;DHT22;10943;48.738;9.320;2022-12-18T14:04:32;5.80;99.90
21565;DHT22;10943;48.738;9.320;2022-12-18T14:07:05;5.70;99.90
21565;DHT22;10943;48.738;9.320;2022-12-18T14:09:55;5.60;99.90
21565;DHT22;10943;48.738;9.320;2022-12-18T14:12:50;5.50;99.90
21565;DHT22;10943;48.738;9.320;2022-12-18T14:15:35;5.40;99.90
21565;DHT22;10943;48.738;9.320;2022-12-18T14:18:34;5.40;99.90
21565;DHT22;10943;48.738;9.320;2022-12-18T14:21:26;5.20;99.90
21565;DHT22;10943;48.738;9.320;2022-12-18T14:24:17;5.10;99.90
21565;DHT22;10943;48.738;9.320;2022-12-18T14:26:49;4.80;99.90
21565;DHT22;10943;48.738;9.320;2022-12-18T14:29:29;4.40;99.90
21565;DHT22;10943;48.738;9.320;2022-12-18T14:32:18;4.40;99.90
21565;DHT22;10943;48.738;9.320;2022-12-18T14:34:52;4.20;99.90
21565;DHT22;10943;48.738;9.320;2022-12-18T14:37:23;4.10;99.90
21565;DHT22;10943;48.738;9.320;2022-12-18T14:40:02;4.00;99.90
21565;DHT22;10943;48.738;9.320;2022-12-18T14:42:37;4.00;99.90
21565;DHT22;10943;48.738;9.320;2022-12-18T14:45:41;3.90;99.90
21565;DHT22;10943;48.738;9.320;2022-12-18T14:50:42;3.90;99.90
21565;DHT22;10943;48.738;9.320;2022-12-18T14:56:18;3.70;99.90
21565;DHT22;10943;48.738;9.320;2022-12-18T14:59:17;3.60;99.90
21565;DHT22;10943;48.738;9.320;2022-12-18T15:02:21;3.40;99.90
21565;DHT22;10943;48.738;9.320;2022-12-18T15:07:45;3.30;99.90
21565;DHT22;10943;48.738;9.320;2022-12-18T15:10:25;3.20;99.90
21565;DHT22;10943;48.738;9.320;2022-12-18T15:26:15;2.30;99.90
21565;DHT22;10943;48.738;9.320;2022-12-18T15:28:56;2.40;99.90
21565;DHT22;10943;48.738;9.320;2022-12-18T15:31:34;2.30;99.90
21565;DHT22;10943;48.738;9.320;2022-12-18T15:36:35;2.10;99.90
21565;DHT22;10943;48.738;9.320;2022-12-18T15:39:04;2.10;99.90
21565;DHT22;10943;48.738;9.320;2022-12-18T15:41:34;2.10;99.90
21565;DHT22;10943;48.738;9.320;2022-12-18T15:44:22;2.00;99.90
21565;DHT22;10943;48.738;9.320;2022-12-18T15:46:50;1.80;99.90
21565;DHT22;10943;48.738;9.320;2022-12-18T15:49:18;1.90;99.90
21565;DHT22;10943;48.738;9.320;2022-12-18T15:51:51;1.90;99.90
21565;DHT22;10943;48.738;9.320;2022-12-18T15:54:22;1.70;99.90
21565;DHT22;10943;48.738;9.320;2022-12-18T15:57:11;1.70;99.90
21565;DHT22;10943;48.738;9.320;2022-12-18T15:59:54;1.60;99.90
21565;DHT22;10943;48.738;9.320;2022-12-18T16:02:26;1.60;99.90
21565;DHT22;10943;48.738;9.320;2022-12-18T16:04:55;1.50;99.90
21565;DHT22;10943;48.738;9.320;2022-12-18T16:07:23;1.50;99.90
21565;DHT22;10943;48.738;9.320;2022-12-18T16:09:56;1.60;99.90
21565;DHT22;10943;48.738;9.320;2022-12-18T16:12:26;1.60;99.90
21565;DHT22;10943;48.738;9.320;2022-12-18T16:14:53;1.30;99.90
21565;DHT22;10943;48.738;9.320;2022-12-18T16:17:21;1.10;99.90
21565;DHT22;10943;48.738;9.320;2022-12-18T16:19:50;1.10;99.90
21565;DHT22;10943;48.738;9.320;2022-12-18T16:22:30;1.10;99.90
21565;DHT22;10943;48.738;9.320;2022-12-18T16:24:57;1.10;99.90
21565;DHT22;10943;48.738;9.320;2022-12-18T16:27:25;1.00;99.90
21565;DHT22;10943;48.738;9.320;2022-12-18T16:29:53;1.00;99.90
21565;DHT22;10943;48.738;9.320;2022-12-18T16:32:22;1.30;99.90
21565;DHT22;10943;48.738;9.320;2022-12-18T16:34:51;1.40;99.90
21565;DHT22;10943;48.738;9.320;2022-12-18T16:37:18;1.30;99.90
21565;DHT22;10943;48.738;9.320;2022-12-18T16:39:45;1.40;99.90
21565;DHT22;10943;48.738;9.320;2022-12-18T16:42:17;1.50;99.90
21565;DHT22;10943;48.738;9.320;2022-12-18T16:44:48;1.80;99.90
21565;DHT22;10943;48.738;9.320;2022-12-18T16:47:17;1.60;99.90
21565;DHT22;10943;48.738;9.320;2022-12-18T16:49:45;1.70;99.90
21565;DHT22;10943;48.738;9.320;2022-12-18T16:52:15;1.60;99.90
21565;DHT22;10943;48.738;9.320;2022-12-18T16:54:44;1.40;99.90
21565;DHT22;10943;48.738;9.320;2022-12-18T16:57:15;1.30;99.90
21565;DHT22;10943;48.738;9.320;2022-12-18T16:59:47;1.30;99.90
21565;DHT22;10943;48.738;9.320;2022-12-18T17:02:20;1.10;99.90
21565;DHT22;10943;48.738;9.320;2022-12-18T17:04:58;1.20;99.90
21565;DHT22;10943;48.738;9.320;2022-12-18T17:07:26;1.40;99.90
21565;DHT22;10943;48.738;9.320;2022-12-18T17:09:54;1.50;99.90
21565;DHT22;10943;48.738;9.320;2022-12-18T17:12:22;1.30;99.90
21565;DHT22;10943;48.738;9.320;2022-12-18T17:14:51;1.40;99.90
21565;DHT22;10943;48.738;9.320;2022-12-18T17:17:18;1.50;99.90
21565;DHT22;10943;48.738;9.320;2022-12-18T17:19:49;1.60;99.90
21565;DHT22;10943;48.738;9.320;2022-12-18T17:22:19;1.50;99.90
21565;DHT22;10943;48.738;9.320;2022-12-18T17:24:49;1.60;99.90
21565;DHT22;10943;48.738;9.320;2022-12-18T17:27:16;1.50;99.90
21565;DHT22;10943;48.738;9.320;2022-12-18T17:29:44;1.30;99.90
21565;DHT22;10943;48.738;9.320;2022-12-18T17:32:16;1.40;99.90
21565;DHT22;10943;48.738;9.320;2022-12-18T17:34:44;1.50;99.90
21565;DHT22;10943;48.738;9.320;2022-12-18T17:37:12;1.70;99.90
21565;DHT22;10943;48.738;9.320;2022-12-18T17:39:40;1.80;99.90
21565;DHT22;10943;48.738;9.320;2022-12-18T17:42:08;1.80;99.90
21565;DHT22;10943;48.738;9.320;2022-12-18T17:44:42;1.90;99.90
21565;DHT22;10943;48.738;9.320;2022-12-18T17:47:13;1.90;99.90
21565;DHT22;10943;48.738;9.320;2022-12-18T17:49:43;1.90;99.90
21565;DHT22;10943;48.738;9.320;2022-12-18T17:52:10;1.90;99.90
21565;DHT22;10943;48.738;9.320;2022-12-18T17:54:38;1.80;99.90
21565;DHT22;10943;48.738;9.320;2022-12-18T17:57:09;1.60;99.90
21565;DHT22;10943;48.738;9.320;2022-12-18T17:59:37;1.80;99.90
21565;DHT22;10943;48.738;9.320;2022-12-18T18:02:04;1.60;99.90
21565;DHT22;10943;48.738;9.320;2022-12-18T18:04:32;1.80;99.90
21565;DHT22;10943;48.738;9.320;2022-12-18T18:07:00;1.90;99.90
21565;DHT22;10943;48.738;9.320;2022-12-18T18:09:27;1.90;99.90
21565;DHT22;10943;48.738;9.320;2022-12-18T18:11:55;2.00;99.90
21565;DHT22;10943;48.738;9.320;2022-12-18T18:14:42;2.10;99.90
21565;DHT22;10943;48.738;9.320;2022-12-18T18:17:09;2.10;99.90
21565;DHT22;10943;48.738;9.320;2022-12-18T18:19:37;2.20;99.90
21565;DHT22;10943;48.738;9.320;2022-12-18T18:22:06;2.10;99.90
21565;DHT22;10943;48.738;9.320;2022-12-18T18:24:33;2.10;99.90